createdAt,value
2019-03-01T14:15:20.035Z,12.74
2019-03-01T14:16:20.463Z,12.66
2019-03-01T14:17:21.112Z,12.67
2019-03-01T14:18:20.448Z,12.79
2019-03-01T14:19:20.045Z,12.82
2019-03-01T14:20:20.998Z,12.89
2019-03-01T14:21:19.891Z,12.91
2019-03-01T14:22:19.859Z,12.95
2019-03-01T14:23:21.316Z,12.98
2019-03-01T14:24:19.883Z,13.07
2019-03-01T14:25:19.702Z,13.14
2019-03-01T14:26:19.705Z,13.00
2019-03-01T14:27:19.788Z,13.03
2019-03-01T14:28:19.717Z,13.12
2019-03-01T14:29:19.722Z,13.07
2019-03-01T14:30:19.722Z,12.93
2019-03-01T14:31:19.744Z,12.97
2019-03-01T14:32:21.777Z,12.94
2019-03-01T14:33:19.792Z,13.21
2019-03-01T14:34:19.774Z,13.22
2019-03-01T14:35:20.576Z,13.30
2019-03-01T14:36:19.770Z,13.53
2019-03-01T14:37:19.784Z,13.68
2019-03-01T14:38:19.807Z,13.49
2019-03-01T14:39:19.801Z,13.39
2019-03-01T14:40:22.670Z,13.21
2019-03-01T14:41:19.829Z,13.07
2019-03-01T14:42:19.832Z,13.02
2019-03-01T14:43:20.349Z,13.19
2019-03-01T14:44:19.854Z,13.32
2019-03-01T14:45:19.869Z,13.12
2019-03-01T14:46:20.916Z,13.18
2019-03-01T14:47:19.889Z,13.28
2019-03-01T14:48:19.868Z,13.31
2019-03-01T14:49:21.636Z,13.36
2019-03-01T14:50:19.907Z,13.34
2019-03-01T14:51:19.877Z,13.42
2019-03-01T14:52:21.324Z,13.60
2019-03-01T14:53:19.897Z,13.74
2019-03-01T14:54:21.291Z,13.76
2019-03-01T14:55:22.988Z,13.57
2019-03-01T14:56:21.510Z,13.48
2019-03-01T14:57:19.721Z,13.33
2019-03-01T14:58:22.300Z,13.14
2019-03-01T14:59:19.735Z,13.28
2019-03-01T15:00:19.747Z,13.44
2019-03-01T15:01:23.344Z,13.57
2019-03-01T15:02:19.795Z,13.76
2019-03-01T15:03:19.793Z,13.92
2019-03-01T15:04:19.796Z,14.05
2019-03-01T15:05:19.996Z,14.08
2019-03-01T15:06:20.178Z,13.81
2019-03-01T15:07:19.817Z,13.84
2019-03-01T15:08:19.803Z,13.77
2019-03-01T15:09:20.392Z,13.65
2019-03-01T15:10:19.838Z,13.61
2019-03-01T15:11:20.241Z,13.50
2019-03-01T15:12:21.095Z,13.22
2019-03-01T15:13:19.849Z,13.04
2019-03-01T15:14:19.846Z,12.93
2019-03-01T15:15:22.975Z,12.84
2019-03-01T15:16:19.871Z,12.83
2019-03-01T15:17:21.817Z,12.78
2019-03-01T15:18:19.880Z,12.73
2019-03-01T15:19:19.869Z,12.68
2019-03-01T15:20:23.329Z,12.61
2019-03-01T15:21:19.903Z,12.53
2019-03-01T15:22:19.932Z,12.44
2019-03-01T15:23:20.793Z,12.46
2019-03-01T15:24:19.925Z,12.47
2019-03-01T15:25:19.926Z,12.45
2019-03-01T15:26:23.106Z,12.44
2019-03-01T15:27:20.560Z,12.42
2019-03-01T15:28:19.989Z,12.39
2019-03-01T15:29:19.762Z,12.36
2019-03-01T15:30:19.761Z,12.31
2019-03-01T15:31:19.765Z,12.29
2019-03-01T15:32:19.812Z,12.26
2019-03-01T15:33:19.824Z,12.24
2019-03-01T15:34:20.532Z,12.18
2019-03-01T15:35:19.803Z,12.16
2019-03-01T15:36:19.804Z,12.09
2019-03-01T15:37:19.791Z,12.04
2019-03-01T15:38:19.810Z,11.97
2019-03-01T15:39:20.792Z,11.95
2019-03-01T15:40:19.872Z,11.90
2019-03-01T15:41:21.069Z,11.81
2019-03-01T15:42:21.171Z,11.76
2019-03-01T15:43:20.883Z,11.69
2019-03-01T15:44:19.880Z,11.63
2019-03-01T15:45:19.859Z,11.59
2019-03-01T15:46:19.892Z,11.58
2019-03-01T15:47:19.877Z,11.54
2019-03-01T15:48:19.896Z,11.50
2019-03-01T15:49:23.698Z,11.45
2019-03-01T15:50:19.895Z,11.42
2019-03-01T15:51:19.957Z,11.37
2019-03-01T15:52:19.953Z,11.34
2019-03-01T15:53:21.629Z,11.29
2019-03-01T15:54:19.953Z,11.26
2019-03-01T15:55:19.956Z,11.21
2019-03-01T15:56:22.039Z,11.18
2019-03-01T15:57:20.022Z,11.14
2019-03-01T15:58:19.969Z,11.11
2019-03-01T15:59:19.972Z,11.06
2019-03-01T16:00:19.805Z,11.11
2019-03-01T16:01:19.809Z,11.18
2019-03-01T16:02:19.809Z,11.20
2019-03-01T16:03:19.789Z,11.22
2019-03-01T16:04:19.804Z,11.26
2019-03-01T16:05:19.809Z,11.33
2019-03-01T16:06:22.266Z,11.35
2019-03-01T16:07:19.835Z,11.30
2019-03-01T16:08:19.841Z,11.29
2019-03-01T16:09:21.734Z,11.27
2019-03-01T16:10:19.860Z,11.27
2019-03-01T16:11:20.045Z,11.26
2019-03-01T16:12:19.859Z,11.26
2019-03-01T16:13:19.871Z,11.24
2019-03-01T16:14:21.099Z,11.19
2019-03-01T16:15:19.905Z,11.20
2019-03-01T16:16:19.892Z,11.20
2019-03-01T16:17:24.343Z,11.16
